Time;durP1;ratioP1;P1;durP2;ratioP2;P2;SDS_P1;SDS_P2;PMS_P1;PMS_P2;Temp;Humidity;BMP_temperature;BMP_pressure;BME280_temperature;BME280_humidity;BME280_pressure;Samples;Min_cycle;Max_cycle;Signal;HPM_P1;HPM_P2
2023/05/28 00:02:15;;;;;;;23.75;7.22;;;11.20;99.90;;;;;;5039216;28;20115;-79
2023/05/28 00:04:42;;;;;;;21.48;7.82;;;11.20;99.90;;;;;;5021961;28;20041;-78
2023/05/28 00:07:10;;;;;;;24.77;7.63;;;11.10;99.90;;;;;;5038991;28;20041;-78
2023/05/28 00:09:36;;;;;;;17.73;7.00;;;11.10;99.90;;;;;;5037160;28;20073;-79
2023/05/28 00:12:06;;;;;;;23.60;7.38;;;11.10;99.90;;;;;;5020811;28;20397;-78
2023/05/28 00:14:31;;;;;;;23.25;7.65;;;11.00;99.90;;;;;;5037692;28;20095;-79
2023/05/28 00:16:57;;;;;;;23.10;7.70;;;11.00;99.90;;;;;;5022694;28;20060;-80
2023/05/28 00:19:23;;;;;;;22.45;8.38;;;11.00;99.90;;;;;;5037965;28;20033;-78
2023/05/28 00:21:50;;;;;;;21.83;6.97;;;11.00;99.90;;;;;;5038470;28;20489;-78
2023/05/28 00:24:16;;;;;;;19.40;7.75;;;11.00;99.90;;;;;;5036945;28;20045;-78
2023/05/28 00:26:41;;;;;;;22.70;9.63;;;10.90;99.90;;;;;;5033842;28;20045;-78
2023/05/28 00:29:07;;;;;;;17.38;8.68;;;10.90;99.90;;;;;;5039486;28;20044;-81
2023/05/28 00:31:33;;;;;;;27.05;11.77;;;10.90;99.90;;;;;;5039587;28;20140;-80
2023/05/28 00:33:59;;;;;;;17.30;8.93;;;10.90;99.90;;;;;;5041002;28;20037;-79
2023/05/28 00:36:25;;;;;;;21.73;7.88;;;10.80;99.90;;;;;;5021940;28;20579;-80
2023/05/28 00:38:51;;;;;;;21.30;7.40;;;10.80;99.90;;;;;;5040961;28;20037;-81
2023/05/28 00:41:23;;;;;;;22.85;10.02;;;10.80;99.90;;;;;;5037786;28;20038;-80
2023/05/28 00:43:49;;;;;;;21.95;8.98;;;10.80;99.90;;;;;;5037202;28;20041;-79
2023/05/28 00:46:19;;;;;;;20.70;8.63;;;10.70;99.90;;;;;;5021780;28;20673;-79
2023/05/28 00:48:45;;;;;;;15.75;7.95;;;10.70;99.90;;;;;;5024232;28;20047;-80
2023/05/28 00:51:12;;;;;;;24.08;8.02;;;10.70;99.90;;;;;;5034383;28;20041;-80
2023/05/28 00:53:39;;;;;;;21.58;7.28;;;10.60;99.90;;;;;;5023538;28;20037;-80
2023/05/28 00:56:05;;;;;;;19.10;7.78;;;10.50;99.90;;;;;;5018603;28;20056;-79
2023/05/28 00:58:34;;;;;;;19.05;7.00;;;10.60;99.90;;;;;;5023849;28;20041;-79
2023/05/28 01:01:01;;;;;;;25.42;7.53;;;10.60;99.90;;;;;;5031402;28;20045;-81
2023/05/28 01:03:27;;;;;;;22.60;7.72;;;10.50;99.90;;;;;;5037139;28;20064;-81
2023/05/28 01:05:53;;;;;;;20.27;7.07;;;10.50;99.90;;;;;;5035810;28;20045;-80
2023/05/28 01:08:19;;;;;;;19.27;7.60;;;10.50;99.90;;;;;;5054584;28;20030;-81
2023/05/28 01:10:46;;;;;;;19.20;7.30;;;10.50;99.90;;;;;;5034352;28;20073;-81
2023/05/28 01:13:12;;;;;;;19.50;7.25;;;10.50;99.90;;;;;;5038085;28;20057;-80
2023/05/28 01:15:40;;;;;;;21.40;6.78;;;10.50;99.90;;;;;;5037492;28;20029;-83
2023/05/28 01:18:06;;;;;;;20.02;7.70;;;10.50;99.90;;;;;;5026718;28;20283;-83
2023/05/28 01:20:33;;;;;;;19.45;7.65;;;10.60;99.90;;;;;;5012357;28;20042;-83
2023/05/28 01:23:07;;;;;;;18.80;7.25;;;10.50;99.90;;;;;;5029754;28;20386;-82
2023/05/28 01:25:33;;;;;;;20.58;7.47;;;10.50;99.90;;;;;;5013176;28;20140;-82
2023/05/28 01:28:01;;;;;;;23.13;7.88;;;10.50;99.90;;;;;;4997001;28;20374;-82
2023/05/28 01:30:28;;;;;;;21.50;7.43;;;10.50;99.90;;;;;;5037383;28;20115;-82
2023/05/28 01:32:54;;;;;;;17.17;7.15;;;10.50;99.90;;;;;;5028916;28;20045;-81
2023/05/28 01:35:20;;;;;;;27.77;12.32;;;10.60;99.90;;;;;;5029096;28;20056;-82
2023/05/28 01:37:53;;;;;;;20.90;7.80;;;10.50;99.90;;;;;;5021618;28;20065;-81
2023/05/28 01:40:19;;;;;;;21.88;8.52;;;10.60;99.90;;;;;;5026525;28;20060;-82
2023/05/28 01:42:51;;;;;;;21.80;8.85;;;10.60;99.90;;;;;;5029711;28;20037;-81
2023/05/28 01:45:20;;;;;;;26.00;10.13;;;10.70;99.90;;;;;;5054035;28;20045;-81
2023/05/28 01:47:46;;;;;;;24.20;10.52;;;10.60;99.90;;;;;;5051350;28;20041;-81
2023/05/28 01:50:13;;;;;;;29.55;15.32;;;10.60;99.90;;;;;;5051553;28;20093;-81
2023/05/28 01:52:39;;;;;;;19.55;7.65;;;10.70;99.90;;;;;;5031061;28;20081;-81
2023/05/28 01:55:05;;;;;;;22.08;7.93;;;10.70;99.90;;;;;;5039515;28;20029;-81
2023/05/28 01:57:31;;;;;;;19.25;9.75;;;10.70;99.90;;;;;;5038534;28;20046;-81
2023/05/28 01:59:57;;;;;;;18.67;6.70;;;10.70;99.90;;;;;;5023487;28;20057;-81
2023/05/28 02:02:26;;;;;;;19.55;7.15;;;10.70;99.90;;;;;;5055932;28;20079;-81
2023/05/28 02:04:55;;;;;;;21.45;7.25;;;10.70;99.90;;;;;;5040486;28;20121;-81
2023/05/28 02:07:21;;;;;;;17.25;6.63;;;10.70;99.90;;;;;;5038268;28;20037;-81
2023/05/28 02:09:47;;;;;;;18.92;6.53;;;10.70;99.90;;;;;;5040228;28;20029;-81
2023/05/28 02:12:13;;;;;;;18.35;7.78;;;10.70;99.90;;;;;;5056222;28;20109;-80
2023/05/28 02:14:39;;;;;;;20.30;7.43;;;10.70;99.90;;;;;;5053918;28;20046;-81
2023/05/28 02:17:04;;;;;;;17.23;6.65;;;10.70;99.90;;;;;;5057065;28;20053;-81
2023/05/28 02:19:32;;;;;;;25.50;7.93;;;10.70;99.90;;;;;;5052922;28;20024;-81
2023/05/28 02:21:58;;;;;;;16.30;7.10;;;10.70;99.90;;;;;;5038589;28;20069;-81
2023/05/28 02:24:24;;;;;;;22.15;6.93;;;10.70;99.90;;;;;;5052848;28;20021;-80
2023/05/28 02:26:51;;;;;;;17.88;7.03;;;10.70;99.90;;;;;;5053728;28;20037;-81
2023/05/28 02:29:16;;;;;;;18.63;6.75;;;10.70;99.90;;;;;;5038538;28;20060;-81
2023/05/28 02:31:42;;;;;;;16.40;7.20;;;10.70;99.90;;;;;;5056095;28;20025;-81
2023/05/28 02:34:09;;;;;;;17.50;7.13;;;10.70;99.90;;;;;;5055931;28;20093;-81
2023/05/28 02:36:35;;;;;;;22.45;7.28;;;10.70;99.90;;;;;;5055581;28;20024;-80
2023/05/28 02:39:02;;;;;;;18.30;7.25;;;10.80;99.90;;;;;;5034664;28;20029;-80
2023/05/28 02:41:28;;;;;;;18.83;6.60;;;10.80;99.90;;;;;;5056124;28;20030;-82
2023/05/28 02:43:53;;;;;;;16.33;7.38;;;10.80;99.90;;;;;;5055738;28;20025;-81
2023/05/28 02:46:19;;;;;;;19.08;6.93;;;10.80;99.90;;;;;;5055439;28;20083;-81
2023/05/28 02:48:45;;;;;;;15.25;6.45;;;10.80;99.90;;;;;;5038543;28;20089;-80
2023/05/28 02:51:11;;;;;;;22.55;7.60;;;10.70;99.90;;;;;;5055158;28;20025;-81
2023/05/28 02:53:37;;;;;;;19.95;7.38;;;10.70;99.90;;;;;;5055025;28;20065;-80
2023/05/28 02:56:03;;;;;;;23.90;8.32;;;10.70;99.90;;;;;;5056405;28;20287;-79
2023/05/28 02:58:30;;;;;;;23.77;8.25;;;10.70;99.90;;;;;;5054916;28;20101;-80
2023/05/28 03:00:56;;;;;;;21.08;7.93;;;10.70;99.90;;;;;;5056129;28;20045;-80
2023/05/28 03:03:22;;;;;;;24.83;8.38;;;10.70;99.90;;;;;;5033498;28;20113;-80
2023/05/28 03:05:49;;;;;;;21.00;7.25;;;10.60;99.90;;;;;;5035367;28;20033;-80
2023/05/28 03:08:15;;;;;;;23.40;8.18;;;10.60;99.90;;;;;;5053991;28;20026;-80
2023/05/28 03:10:40;;;;;;;20.27;8.23;;;10.70;99.90;;;;;;5055802;28;20037;-80
2023/05/28 03:13:06;;;;;;;18.80;7.43;;;10.70;99.90;;;;;;5053967;28;20073;-80
2023/05/28 03:15:32;;;;;;;21.58;7.97;;;10.60;99.90;;;;;;5038286;28;20049;-80
2023/05/28 03:17:58;;;;;;;21.17;8.27;;;10.60;99.90;;;;;;5037964;28;20029;-81
2023/05/28 03:20:24;;;;;;;18.02;7.43;;;10.60;99.90;;;;;;5054831;28;20048;-80
2023/05/28 03:22:55;;;;;;;21.88;7.88;;;10.60;99.90;;;;;;5054810;28;20060;-81
2023/05/28 03:25:21;;;;;;;23.20;8.30;;;10.60;99.90;;;;;;5038015;28;20057;-81
2023/05/28 03:27:47;;;;;;;18.23;7.38;;;10.60;99.90;;;;;;5039197;28;20033;-80
2023/05/28 03:30:14;;;;;;;18.40;7.53;;;10.60;99.90;;;;;;5055144;28;20021;-81
2023/05/28 03:32:40;;;;;;;22.05;8.07;;;10.60;99.90;;;;;;5054827;28;20057;-80
2023/05/28 03:35:07;;;;;;;18.42;7.28;;;10.60;99.90;;;;;;5037354;28;20076;-81
2023/05/28 03:37:33;;;;;;;24.05;8.63;;;10.70;99.90;;;;;;5036257;28;20072;-80
2023/05/28 03:39:59;;;;;;;23.35;6.93;;;10.70;99.90;;;;;;5053520;28;20029;-80
2023/05/28 03:42:25;;;;;;;19.48;8.63;;;10.70;99.90;;;;;;5037160;28;20053;-81
2023/05/28 03:44:53;;;;;;;19.70;6.93;;;10.70;99.90;;;;;;5025939;28;20042;-81
2023/05/28 03:47:19;;;;;;;18.63;7.90;;;10.70;99.90;;;;;;5053374;28;20037;-81
2023/05/28 03:49:45;;;;;;;20.45;7.10;;;10.70;99.90;;;;;;5052905;28;20054;-81
2023/05/28 03:52:11;;;;;;;23.95;7.43;;;10.70;99.90;;;;;;5037685;28;20030;-81
2023/05/28 03:54:40;;;;;;;21.67;7.47;;;10.70;99.90;;;;;;5035304;28;20060;-81
2023/05/28 03:57:06;;;;;;;16.95;7.13;;;10.70;99.90;;;;;;5038471;28;20057;-81
2023/05/28 03:59:32;;;;;;;19.17;7.05;;;10.70;99.90;;;;;;5037393;28;20033;-80
2023/05/28 04:01:57;;;;;;;16.23;7.28;;;10.70;99.90;;;;;;5053893;28;20055;-80
2023/05/28 04:04:23;;;;;;;18.65;7.00;;;10.70;99.90;;;;;;5035806;28;20037;-81
2023/05/28 04:06:49;;;;;;;21.05;7.63;;;10.70;99.90;;;;;;5055714;28;20060;-81
2023/05/28 04:09:15;;;;;;;17.10;6.97;;;10.70;99.90;;;;;;5053692;28;20068;-80
2023/05/28 04:11:40;;;;;;;18.13;7.82;;;10.70;99.90;;;;;;5035380;28;20068;-80
2023/05/28 04:14:09;;;;;;;18.40;7.80;;;10.70;99.90;;;;;;5032322;28;20049;-81
2023/05/28 04:16:35;;;;;;;20.83;7.13;;;10.70;99.90;;;;;;5036555;28;20030;-80
2023/05/28 04:19:00;;;;;;;17.30;6.95;;;10.70;99.90;;;;;;5035713;28;20039;-81
2023/05/28 04:21:28;;;;;;;17.85;7.07;;;10.70;99.90;;;;;;5038631;28;20049;-81
2023/05/28 04:23:57;;;;;;;23.65;8.07;;;10.70;99.90;;;;;;5035378;28;20056;-81
2023/05/28 04:26:23;;;;;;;20.38;7.45;;;10.70;99.90;;;;;;5037735;28;20030;-81
2023/05/28 04:28:50;;;;;;;26.27;8.02;;;10.70;99.90;;;;;;5035722;28;20038;-80
2023/05/28 04:31:19;;;;;;;23.52;8.02;;;10.70;99.90;;;;;;5037304;28;20064;-81
2023/05/28 04:33:46;;;;;;;19.73;8.13;;;10.70;99.90;;;;;;5037667;28;20084;-81
2023/05/28 04:36:13;;;;;;;17.10;7.10;;;10.80;99.90;;;;;;5046637;28;20044;-81
2023/05/28 04:38:39;;;;;;;19.27;6.85;;;10.80;99.90;;;;;;5037209;28;20041;-81
2023/05/28 04:41:05;;;;;;;19.83;7.70;;;10.90;99.90;;;;;;5053038;28;20045;-80
2023/05/28 04:43:33;;;;;;;20.20;7.82;;;10.90;99.90;;;;;;5053522;28;20052;-80
2023/05/28 04:46:01;;;;;;;17.08;7.00;;;11.00;99.90;;;;;;5034307;28;20075;-80
2023/05/28 04:48:27;;;;;;;20.55;7.55;;;11.00;99.90;;;;;;5050171;28;20041;-81
2023/05/28 04:50:53;;;;;;;17.77;7.35;;;11.10;99.90;;;;;;5037178;28;20033;-79
2023/05/28 04:53:20;;;;;;;18.45;6.60;;;11.20;99.90;;;;;;5053232;28;20052;-81
2023/05/28 04:55:46;;;;;;;18.20;7.25;;;11.30;99.90;;;;;;5030752;28;20033;-80
2023/05/28 04:58:11;;;;;;;20.85;6.82;;;11.50;99.90;;;;;;5035954;28;20063;-80
2023/05/28 05:00:38;;;;;;;19.90;7.47;;;11.60;99.90;;;;;;5051631;28;20044;-80
2023/05/28 05:03:03;;;;;;;22.20;6.78;;;11.70;99.90;;;;;;5036938;28;20037;-80
2023/05/28 05:05:32;;;;;;;19.35;7.10;;;11.90;99.90;;;;;;5035244;28;20037;-80
2023/05/28 05:07:58;;;;;;;19.15;6.95;;;12.10;99.90;;;;;;5036404;28;20041;-80
2023/05/28 05:10:24;;;;;;;16.13;6.32;;;12.40;99.90;;;;;;5038956;28;20026;-80
2023/05/28 05:12:50;;;;;;;19.40;7.30;;;12.60;99.90;;;;;;5036280;28;20109;-81
2023/05/28 05:15:16;;;;;;;17.05;6.63;;;12.70;99.90;;;;;;5053175;28;20057;-80
2023/05/28 05:17:42;;;;;;;17.70;6.90;;;12.80;99.90;;;;;;5053839;28;20045;-81
2023/05/28 05:20:08;;;;;;;18.23;6.30;;;13.10;99.90;;;;;;5033571;28;20041;-80
2023/05/28 05:22:34;;;;;;;18.65;7.00;;;13.20;99.90;;;;;;5052491;28;20049;-80
2023/05/28 05:25:00;;;;;;;19.13;6.25;;;13.00;99.90;;;;;;5050062;28;20078;-83
2023/05/28 05:27:28;;;;;;;16.15;6.38;;;12.90;99.90;;;;;;5037648;28;20045;-80
2023/05/28 05:29:53;;;;;;;13.43;5.78;;;12.90;99.90;;;;;;5055798;28;20055;-80
2023/05/28 05:32:19;;;;;;;16.85;6.28;;;12.90;99.90;;;;;;5056563;28;20239;-81
2023/05/28 05:34:45;;;;;;;15.43;5.78;;;12.80;99.90;;;;;;5038157;28;20046;-81
2023/05/28 05:37:11;;;;;;;18.42;6.07;;;12.90;99.90;;;;;;5040233;28;20052;-80
2023/05/28 05:39:36;;;;;;;16.35;6.65;;;13.00;99.90;;;;;;5038571;28;20017;-79
2023/05/28 05:42:02;;;;;;;16.80;6.05;;;13.10;99.90;;;;;;5039427;28;20092;-80
2023/05/28 05:44:28;;;;;;;16.77;5.97;;;13.10;99.90;;;;;;5036852;28;20041;-81
2023/05/28 05:46:54;;;;;;;15.38;6.35;;;13.30;99.90;;;;;;5055261;28;20060;-80
2023/05/28 05:49:20;;;;;;;14.10;5.70;;;13.30;99.90;;;;;;5047817;28;20369;-81
2023/05/28 05:51:45;;;;;;;13.40;5.88;;;13.50;99.90;;;;;;5032072;28;20045;-82
2023/05/28 05:54:14;;;;;;;14.57;5.07;;;13.60;99.90;;;;;;5036501;28;20417;-83
2023/05/28 05:56:40;;;;;;;13.13;5.60;;;13.70;99.90;;;;;;5017611;28;20042;-82
2023/05/28 05:59:06;;;;;;;14.27;4.95;;;13.80;99.90;;;;;;5021123;28;20133;-82
2023/05/28 06:01:32;;;;;;;15.20;5.93;;;13.80;99.90;;;;;;5020145;28;20047;-81
2023/05/28 06:03:57;;;;;;;16.98;5.53;;;13.90;99.90;;;;;;5033938;28;20033;-82
2023/05/28 06:06:23;;;;;;;13.63;5.10;;;13.90;99.90;;;;;;5018768;28;20080;-82
2023/05/28 06:08:49;;;;;;;14.07;4.90;;;13.90;99.90;;;;;;5015287;28;20085;-80
2023/05/28 06:11:15;;;;;;;16.20;4.80;;;14.00;99.90;;;;;;5015585;28;20037;-80
2023/05/28 06:13:41;;;;;;;15.38;5.57;;;14.00;99.90;;;;;;5036601;28;20045;-80
2023/05/28 06:16:07;;;;;;;15.80;5.53;;;14.00;99.90;;;;;;5040745;28;20042;-79
2023/05/28 06:18:33;;;;;;;16.50;5.82;;;14.10;99.90;;;;;;5040227;28;20040;-77
2023/05/28 06:20:59;;;;;;;14.85;5.13;;;14.10;99.90;;;;;;5024279;28;20056;-78
2023/05/28 06:23:25;;;;;;;17.42;5.32;;;14.10;99.90;;;;;;5041411;28;20044;-78
2023/05/28 06:25:54;;;;;;;14.57;5.88;;;14.20;99.90;;;;;;5035669;28;20041;-79
2023/05/28 06:28:19;;;;;;;14.07;6.18;;;14.30;99.90;;;;;;5035543;28;20080;-79
2023/05/28 06:30:45;;;;;;;17.92;6.68;;;14.30;99.90;;;;;;5020045;28;20433;-79
2023/05/28 06:33:11;;;;;;;11.73;5.05;;;14.40;99.90;;;;;;5021479;28;20064;-79
2023/05/28 06:35:39;;;;;;;15.25;5.15;;;14.50;99.90;;;;;;5035181;28;20041;-79
2023/05/28 06:38:05;;;;;;;16.67;4.80;;;14.70;99.90;;;;;;5037244;28;20120;-78
2023/05/28 06:40:31;;;;;;;14.43;4.80;;;14.90;99.90;;;;;;5020630;28;20202;-80
2023/05/28 06:43:00;;;;;;;11.68;4.55;;;15.00;99.90;;;;;;5024991;28;20030;-78
2023/05/28 06:45:27;;;;;;;12.27;4.72;;;15.10;99.90;;;;;;5035482;28;20398;-79
2023/05/28 06:47:52;;;;;;;12.70;4.80;;;15.40;99.90;;;;;;5035732;28;20371;-79
2023/05/28 06:50:18;;;;;;;16.70;7.22;;;15.50;99.90;;;;;;5039036;28;20182;-78
2023/05/28 06:52:44;;;;;;;16.10;5.38;;;15.60;99.90;;;;;;5038904;28;20042;-79
2023/05/28 06:55:10;;;;;;;14.00;5.00;;;15.70;99.90;;;;;;5021267;28;20053;-78
2023/05/28 06:57:36;;;;;;;12.73;4.50;;;15.80;99.90;;;;;;5039051;28;20033;-79
2023/05/28 07:00:14;;;;;;;12.63;4.90;;;15.90;99.90;;;;;;5037940;28;20131;-79
2023/05/28 07:02:40;;;;;;;10.55;4.72;;;16.00;99.90;;;;;;5019877;28;20041;-80
2023/05/28 07:05:05;;;;;;;12.75;4.38;;;16.10;99.90;;;;;;5016035;28;20081;-79
2023/05/28 07:07:32;;;;;;;13.48;5.30;;;16.20;99.90;;;;;;5021226;28;20387;-79
2023/05/28 07:09:57;;;;;;;9.52;4.25;;;16.30;99.90;;;;;;5036003;28;20547;-81
2023/05/28 07:12:23;;;;;;;15.00;5.10;;;16.30;99.90;;;;;;5020496;28;20037;-80
2023/05/28 07:14:49;;;;;;;12.30;4.63;;;16.40;99.90;;;;;;5022020;28;20033;-79
2023/05/28 07:17:15;;;;;;;12.57;5.15;;;16.50;99.90;;;;;;5023067;28;20038;-80
2023/05/28 07:19:41;;;;;;;13.30;4.75;;;16.50;99.90;;;;;;5038603;28;21263;-80
2023/05/28 07:22:07;;;;;;;8.90;4.35;;;16.50;99.90;;;;;;5021855;28;20103;-81
2023/05/28 07:24:33;;;;;;;14.02;4.90;;;16.50;99.90;;;;;;5016542;28;20067;-79
2023/05/28 07:26:58;;;;;;;13.73;5.10;;;16.60;99.90;;;;;;5019462;28;20037;-79
2023/05/28 07:29:26;;;;;;;9.18;4.45;;;16.80;99.90;;;;;;5032086;28;20057;-79
2023/05/28 07:31:52;;;;;;;11.38;4.60;;;16.90;99.90;;;;;;5018655;28;20046;-79
2023/05/28 07:34:19;;;;;;;12.63;4.65;;;17.00;99.90;;;;;;5017222;28;20556;-80
2023/05/28 07:36:45;;;;;;;12.50;4.97;;;17.10;99.90;;;;;;5037435;28;20033;-81
2023/05/28 07:39:11;;;;;;;15.15;5.38;;;17.10;99.90;;;;;;5034374;28;21092;-80
2023/05/28 07:41:36;;;;;;;12.63;4.47;;;17.30;99.90;;;;;;5036603;28;20157;-81
2023/05/28 07:44:03;;;;;;;10.13;4.78;;;17.50;99.90;;;;;;5033299;28;20045;-80
2023/05/28 07:46:29;;;;;;;10.95;5.18;;;17.60;99.90;;;;;;5037030;28;20053;-80
2023/05/28 07:48:55;;;;;;;10.50;5.00;;;17.60;99.90;;;;;;5018867;28;20120;-80
2023/05/28 07:51:21;;;;;;;14.82;5.22;;;17.80;99.90;;;;;;5018054;28;20060;-80
2023/05/28 07:53:47;;;;;;;10.80;5.00;;;17.80;99.90;;;;;;5035443;28;20084;-79
2023/05/28 07:56:13;;;;;;;14.32;5.72;;;17.90;99.90;;;;;;5018644;28;20057;-80
2023/05/28 07:58:41;;;;;;;14.60;5.32;;;18.00;99.90;;;;;;5019337;28;20048;-80
2023/05/28 08:01:08;;;;;;;12.23;5.13;;;18.10;99.90;;;;;;5034650;28;20052;-80
2023/05/28 08:03:34;;;;;;;12.40;5.57;;;18.20;99.90;;;;;;5031829;28;20056;-80
2023/05/28 08:06:01;;;;;;;13.90;5.22;;;18.20;99.90;;;;;;5018983;28;20033;-80
2023/05/28 08:08:27;;;;;;;12.05;5.97;;;18.30;99.90;;;;;;5014895;28;20045;-80
2023/05/28 08:10:53;;;;;;;11.07;5.93;;;18.20;99.90;;;;;;5033993;28;20068;-80
2023/05/28 08:13:19;;;;;;;8.80;4.72;;;18.40;99.90;;;;;;5034317;28;20096;-80
2023/05/28 08:15:45;;;;;;;12.77;5.60;;;18.60;99.90;;;;;;5033451;28;20379;-80
2023/05/28 08:18:10;;;;;;;10.60;5.80;;;18.70;99.90;;;;;;5032240;28;20148;-80
2023/05/28 08:20:36;;;;;;;10.02;6.10;;;18.80;99.90;;;;;;5016211;28;20052;-80
2023/05/28 08:23:02;;;;;;;13.05;5.90;;;18.90;99.90;;;;;;5018157;28;20569;-80
2023/05/28 08:25:28;;;;;;;9.73;6.05;;;19.10;99.70;;;;;;5015510;28;20029;-80
2023/05/28 08:27:54;;;;;;;10.82;5.60;;;19.30;99.40;;;;;;5017445;28;20053;-80
2023/05/28 08:30:20;;;;;;;11.57;6.07;;;19.40;98.10;;;;;;5015681;28;20450;-81
2023/05/28 08:32:46;;;;;;;12.80;6.10;;;19.60;98.70;;;;;;5033972;28;20049;-81
2023/05/28 08:35:12;;;;;;;10.95;5.13;;;19.70;97.40;;;;;;5018837;28;20038;-80
2023/05/28 08:37:38;;;;;;;13.50;7.35;;;19.90;97.40;;;;;;5018491;28;20071;-80
2023/05/28 08:40:08;;;;;;;9.50;5.55;;;19.90;96.10;;;;;;5018881;28;20038;-81
2023/05/28 08:42:35;;;;;;;11.30;5.22;;;20.10;95.40;;;;;;5018469;28;20175;-80
2023/05/28 08:45:02;;;;;;;8.82;5.15;;;20.40;95.00;;;;;;5016665;28;20070;-80
2023/05/28 08:47:32;;;;;;;10.15;5.57;;;20.90;95.50;;;;;;5017422;28;20075;-81
2023/05/28 08:50:02;;;;;;;10.40;5.28;;;21.10;93.00;;;;;;5015450;28;20037;-80
2023/05/28 08:52:31;;;;;;;9.57;6.80;;;21.30;90.40;;;;;;5029990;28;20473;-81
2023/05/28 08:54:58;;;;;;;9.88;6.10;;;21.30;90.30;;;;;;5035079;28;20037;-81
2023/05/28 08:57:25;;;;;;;9.70;5.07;;;21.40;90.80;;;;;;5018624;28;20041;-81
2023/05/28 08:59:53;;;;;;;10.38;5.65;;;21.50;89.60;;;;;;5029883;28;20030;-82
2023/05/28 09:02:24;;;;;;;8.68;5.22;;;21.30;84.90;;;;;;5017946;28;20386;-78
2023/05/28 09:04:50;;;;;;;9.57;5.55;;;21.20;84.70;;;;;;5027641;28;20045;-81
2023/05/28 09:07:17;;;;;;;8.90;4.82;;;21.30;88.70;;;;;;5031543;28;20057;-79
2023/05/28 09:09:43;;;;;;;11.18;5.30;;;21.30;86.80;;;;;;5047803;28;20542;-79
2023/05/28 09:12:13;;;;;;;10.75;5.10;;;21.20;84.20;;;;;;5016159;28;20620;-80
2023/05/28 09:14:40;;;;;;;8.25;4.93;;;21.20;84.50;;;;;;5034486;28;20042;-79
2023/05/28 09:17:10;;;;;;;11.25;5.35;;;21.20;83.80;;;;;;5018588;28;20055;-79
2023/05/28 09:19:38;;;;;;;7.75;4.70;;;21.30;82.90;;;;;;5034512;28;20041;-78
2023/05/28 09:22:04;;;;;;;7.75;4.25;;;21.60;84.80;;;;;;5033480;28;20072;-78
2023/05/28 09:24:30;;;;;;;11.40;4.50;;;21.70;84.40;;;;;;5032385;28;20041;-78
2023/05/28 09:26:57;;;;;;;9.65;4.97;;;21.90;84.20;;;;;;5031530;28;20049;-77
2023/05/28 09:29:24;;;;;;;10.07;4.63;;;21.70;83.40;;;;;;5020190;28;20049;-78
2023/05/28 09:31:58;;;;;;;8.05;4.65;;;21.70;83.80;;;;;;5028608;28;20034;-77
2023/05/28 09:34:31;;;;;;;9.52;4.00;;;21.90;84.70;;;;;;5016625;28;20079;-78
2023/05/28 09:37:04;;;;;;;9.25;4.72;;;22.20;84.80;;;;;;5004334;28;20528;-78
2023/05/28 09:39:31;;;;;;;10.73;4.60;;;22.40;79.20;;;;;;5033305;28;20033;-80
2023/05/28 09:42:09;;;;;;;7.50;3.95;;;22.50;80.50;;;;;;5017057;28;20091;-80
2023/05/28 09:44:39;;;;;;;9.25;4.40;;;22.20;76.80;;;;;;5018344;28;20069;-80
2023/05/28 09:47:19;;;;;;;8.63;4.15;;;22.10;75.90;;;;;;5019284;28;20042;-79
2023/05/28 09:49:46;;;;;;;9.75;4.18;;;22.00;72.50;;;;;;5022470;28;20037;-80
2023/05/28 09:52:22;;;;;;;10.85;4.22;;;22.00;74.50;;;;;;5018691;28;20042;-79
2023/05/28 09:54:51;;;;;;;7.28;4.40;;;22.20;71.00;;;;;;5018758;28;20071;-80
2023/05/28 09:57:40;;;;;;;6.82;4.10;;;22.30;69.80;;;;;;5021402;28;20061;-79
2023/05/28 10:00:14;;;;;;;8.35;4.40;;;22.60;65.10;;;;;;5033671;28;20045;-80
2023/05/28 10:02:53;;;;;;;;;;;22.50;65.10;;;;;;5030605;28;20070;-80
2023/05/28 10:05:21;;;;;;;6.40;4.20;;;22.70;62.80;;;;;;5031097;28;19968;-81
2023/05/28 10:07:52;;;;;;;7.10;4.10;;;22.80;61.00;;;;;;5028593;28;20076;-81
2023/05/28 10:10:20;;;;;;;6.55;4.03;;;22.90;60.30;;;;;;5014349;28;20076;-81
2023/05/28 10:12:47;;;;;;;7.38;3.58;;;22.90;60.40;;;;;;5016566;28;20393;-81
2023/05/28 10:15:14;;;;;;;5.70;3.83;;;23.10;60.90;;;;;;5019220;28;20107;-81
2023/05/28 10:17:41;;;;;;;5.65;3.97;;;23.30;59.10;;;;;;5034300;28;20482;-81
2023/05/28 10:20:10;;;;;;;7.35;4.10;;;23.40;58.10;;;;;;5032384;28;20034;-82
2023/05/28 10:22:39;;;;;;;5.85;4.20;;;23.20;54.30;;;;;;5019456;28;20460;-82
2023/05/28 10:25:07;;;;;;;6.85;4.45;;;23.10;56.20;;;;;;5035366;28;20046;-81
2023/05/28 10:27:35;;;;;;;5.75;4.07;;;23.00;55.60;;;;;;5019156;28;20053;-82
2023/05/28 10:30:03;;;;;;;7.75;4.30;;;23.00;56.50;;;;;;5035839;28;20091;-82
2023/05/28 10:32:29;;;;;;;6.60;4.15;;;23.10;55.80;;;;;;5020477;28;20053;-81
2023/05/28 10:35:03;;;;;;;7.60;4.22;;;23.50;57.30;;;;;;5036749;28;20057;-81
2023/05/28 10:37:29;;;;;;;7.45;4.40;;;23.90;54.70;;;;;;5020099;28;20071;-80
2023/05/28 10:39:55;;;;;;;9.40;4.47;;;24.00;54.60;;;;;;5020099;28;20528;-81
2023/05/28 10:42:21;;;;;;;7.97;4.55;;;24.20;53.90;;;;;;5035569;28;20045;-82
2023/05/28 10:45:10;;;;;;;41.22;37.17;;;24.10;53.90;;;;;;5037476;28;20188;-81
2023/05/28 10:47:38;;;;;;;22.17;20.00;;;24.40;52.80;;;;;;5019029;28;20188;-81
2023/05/28 10:50:22;;;;;;;7.13;4.60;;;24.40;53.40;;;;;;5036430;28;20045;-81
2023/05/28 10:53:08;;;;;;;6.80;4.50;;;24.80;55.10;;;;;;5028289;28;20072;-82
2023/05/28 10:56:07;;;;;;;6.75;3.95;;;25.10;53.80;;;;;;5034529;28;20038;-81
2023/05/28 10:58:38;;;;;;;10.95;5.03;;;24.70;49.20;;;;;;4986897;28;20054;-82
2023/05/28 11:01:04;;;;;;;7.97;5.10;;;24.50;52.80;;;;;;5013790;28;20129;-81
2023/05/28 11:03:40;;;;;;;6.63;4.38;;;24.40;52.10;;;;;;5017752;28;20401;-81
2023/05/28 11:06:08;;;;;;;10.38;4.40;;;24.30;51.90;;;;;;5019387;28;20258;-81
2023/05/28 11:08:48;;;;;;;7.15;4.65;;;24.10;52.00;;;;;;5013713;28;20041;-82
2023/05/28 11:11:16;;;;;;;5.70;3.90;;;24.00;50.10;;;;;;5019171;28;20044;-81
2023/05/28 11:13:49;;;;;;;6.72;4.65;;;24.10;53.30;;;;;;5033595;28;20627;-83
2023/05/28 11:16:16;;;;;;;9.55;4.30;;;24.40;51.30;;;;;;5017381;28;20445;-81
2023/05/28 11:19:05;;;;;;;8.40;4.53;;;24.50;50.70;;;;;;5013108;28;20053;-81
2023/05/28 11:21:32;;;;;;;5.63;4.22;;;24.60;49.20;;;;;;5011933;28;20064;-84
2023/05/28 11:24:05;;;;;;;7.47;4.72;;;24.60;49.20;;;;;;5034964;28;20048;-81
2023/05/28 11:26:32;;;;;;;;;;;24.60;49.70;;;;;;5016377;28;20146;-81
2023/05/28 11:28:58;;;;;;;7.53;4.38;;;24.40;47.80;;;;;;5034880;28;19917;-81
2023/05/28 11:31:24;;;;;;;5.75;3.83;;;24.70;49.40;;;;;;5033583;28;20079;-81
2023/05/28 11:33:51;;;;;;;5.20;4.55;;;24.90;47.60;;;;;;5018022;28;20500;-83
2023/05/28 11:36:19;;;;;;;5.93;4.30;;;24.80;46.60;;;;;;5035255;28;20048;-82
2023/05/28 11:38:45;;;;;;;5.55;4.10;;;24.60;47.70;;;;;;5026137;28;20040;-82
2023/05/28 11:41:11;;;;;;;6.72;4.60;;;24.70;45.80;;;;;;5012662;28;20038;-81
2023/05/28 11:43:36;;;;;;;7.00;4.88;;;24.80;46.80;;;;;;5016907;28;20060;-82
2023/05/28 11:46:05;;;;;;;5.63;4.45;;;24.90;45.80;;;;;;5031580;28;20052;-82
2023/05/28 11:48:37;;;;;;;6.85;4.88;;;24.70;44.00;;;;;;5018019;28;20124;-82
2023/05/28 11:51:02;;;;;;;5.03;4.40;;;24.50;43.90;;;;;;5025526;28;20053;-83
2023/05/28 11:53:42;;;;;;;13.98;12.40;;;24.40;45.20;;;;;;5035495;28;20056;-83
2023/05/28 11:56:12;;;;;;;5.03;4.47;;;24.50;43.40;;;;;;5034749;28;20048;-83
2023/05/28 11:58:43;;;;;;;5.22;4.50;;;24.60;44.90;;;;;;5021157;28;20048;-83
2023/05/28 12:01:14;;;;;;;11.90;10.65;;;24.60;44.70;;;;;;5037329;28;20052;-82
2023/05/28 12:03:40;;;;;;;6.05;4.75;;;24.80;43.40;;;;;;5034396;28;20115;-83
2023/05/28 12:06:06;;;;;;;8.82;5.57;;;24.60;42.70;;;;;;5016543;28;20499;-82
2023/05/28 12:08:32;;;;;;;5.07;4.40;;;24.60;43.50;;;;;;5018488;28;20393;-83
2023/05/28 12:11:06;;;;;;;5.65;4.82;;;24.40;43.00;;;;;;5031857;28;20493;-83
2023/05/28 12:13:33;;;;;;;6.38;5.25;;;24.20;43.60;;;;;;5032461;28;20042;-83
2023/05/28 12:16:07;;;;;;;6.32;5.57;;;24.40;44.90;;;;;;5034929;28;20071;-83
2023/05/28 12:18:41;;;;;;;6.15;5.22;;;24.60;44.00;;;;;;5034707;28;20041;-83
2023/05/28 12:21:12;;;;;;;5.75;5.00;;;24.60;43.90;;;;;;5017751;28;20049;-83
2023/05/28 12:23:38;;;;;;;5.25;4.72;;;24.60;42.90;;;;;;5003221;28;20490;-83
2023/05/28 12:26:09;;;;;;;5.85;4.30;;;24.80;43.20;;;;;;5018597;28;20103;-83
2023/05/28 12:28:39;;;;;;;6.03;4.07;;;24.90;41.80;;;;;;5033388;28;20083;-83
2023/05/28 12:31:06;;;;;;;6.70;4.47;;;24.70;43.30;;;;;;5030007;28;20053;-84
2023/05/28 12:33:32;;;;;;;7.28;4.35;;;24.60;43.90;;;;;;5017912;28;20053;-84
2023/05/28 12:35:59;;;;;;;4.90;3.60;;;24.50;43.30;;;;;;5031801;28;20041;-81
2023/05/28 12:38:26;;;;;;;4.70;3.30;;;24.50;43.20;;;;;;5015994;28;20045;-82
2023/05/28 12:40:52;;;;;;;4.95;2.90;;;24.40;42.60;;;;;;5035355;28;20041;-85
2023/05/28 12:43:20;;;;;;;4.72;3.30;;;24.40;41.40;;;;;;5033814;28;20048;-82